createdAt,value
2018-05-18T00:01:05.424Z,70.43
2018-05-18T00:03:33.056Z,70.76
2018-05-18T00:06:00.641Z,70.56
2018-05-18T00:08:28.256Z,70.51
2018-05-18T00:10:55.897Z,70.51
2018-05-18T00:13:23.562Z,70.16
2018-05-18T00:15:51.160Z,69.62
2018-05-18T00:18:18.882Z,69.65
2018-05-18T00:20:46.455Z,69.86
2018-05-18T00:23:14.045Z,70.19
2018-05-18T00:25:41.657Z,70.37
2018-05-18T00:28:09.228Z,70.45
2018-05-18T00:30:37.425Z,70.73
2018-05-18T00:33:05.286Z,70.65
2018-05-18T00:35:32.873Z,70.42
2018-05-18T00:38:00.981Z,70.48
2018-05-18T00:40:28.625Z,70.47
2018-05-18T00:42:56.212Z,70.98
2018-05-18T00:45:23.811Z,70.55
2018-05-18T00:47:51.462Z,69.52
2018-05-18T00:50:19.111Z,69.64
2018-05-18T00:52:46.692Z,69.36
2018-05-18T00:55:26.142Z,68.90
2018-05-18T00:57:53.721Z,69.07
2018-05-18T01:00:21.398Z,69.48
2018-05-18T01:02:49.638Z,69.77
2018-05-18T01:05:17.272Z,70.35
2018-05-18T01:07:45.151Z,70.62
2018-05-18T01:10:12.798Z,71.24
2018-05-18T01:12:40.433Z,71.34
2018-05-18T01:15:08.597Z,71.06
2018-05-18T01:17:36.266Z,70.76
2018-05-18T01:20:03.888Z,69.81
2018-05-18T01:22:31.505Z,69.86
2018-05-18T01:24:59.115Z,70.11
2018-05-18T01:27:26.768Z,69.80
2018-05-18T01:29:54.751Z,70.04
2018-05-18T01:32:22.356Z,70.00
2018-05-18T01:34:49.939Z,69.43
2018-05-18T01:37:17.627Z,69.17
2018-05-18T01:39:45.632Z,69.06
2018-05-18T01:42:13.294Z,68.74
2018-05-18T01:44:40.870Z,69.00
2018-05-18T01:47:08.709Z,68.94
2018-05-18T01:49:36.316Z,68.95
2018-05-18T01:52:03.991Z,69.79
2018-05-18T01:54:31.672Z,69.99
2018-05-18T01:56:59.248Z,70.19
2018-05-18T01:59:26.927Z,70.48
2018-05-18T02:01:54.519Z,70.56
2018-05-18T02:04:22.129Z,70.95
2018-05-18T02:06:49.853Z,71.08
2018-05-18T02:09:17.429Z,71.12
2018-05-18T02:11:45.026Z,71.39
2018-05-18T02:14:12.707Z,71.43
2018-05-18T02:16:40.547Z,71.28
2018-05-18T02:19:08.418Z,71.30
2018-05-18T02:21:36.160Z,71.42
2018-05-18T02:24:03.734Z,71.68
2018-05-18T02:26:31.400Z,71.71
2018-05-18T02:28:59.113Z,71.68
2018-05-18T02:31:26.929Z,70.70
2018-05-18T02:33:54.762Z,70.55
2018-05-18T02:36:22.530Z,70.91
2018-05-18T02:38:50.199Z,71.11
2018-05-18T02:41:17.788Z,71.33
2018-05-18T02:43:45.493Z,70.76
2018-05-18T02:46:13.140Z,70.58
2018-05-18T02:48:40.837Z,70.58
2018-05-18T02:51:08.411Z,70.53
2018-05-18T02:53:36.383Z,70.81
2018-05-18T02:56:04.040Z,70.95
2018-05-18T02:58:31.699Z,71.17
2018-05-18T03:00:59.341Z,71.46
2018-05-18T03:03:27.068Z,71.24
2018-05-18T03:05:54.649Z,71.33
2018-05-18T03:08:22.260Z,71.63
2018-05-18T03:10:49.842Z,71.68
2018-05-18T03:13:17.986Z,71.68
2018-05-18T03:15:45.824Z,71.64
2018-05-18T03:18:13.472Z,71.34
2018-05-18T03:20:41.632Z,71.35
2018-05-18T03:23:09.556Z,71.32
2018-05-18T03:25:37.126Z,71.38
2018-05-18T03:28:04.810Z,71.38
2018-05-18T03:30:32.645Z,71.31
2018-05-18T03:33:00.295Z,71.58
2018-05-18T03:35:27.937Z,71.58
2018-05-18T03:37:55.555Z,71.70
2018-05-18T03:40:23.132Z,72.23
2018-05-18T03:42:51.153Z,71.69
2018-05-18T03:45:18.993Z,71.68
2018-05-18T03:47:46.635Z,71.52
2018-05-18T03:50:14.784Z,71.65
2018-05-18T03:52:42.589Z,71.96
2018-05-18T03:55:10.202Z,71.55
2018-05-18T03:57:37.924Z,71.73
2018-05-18T04:00:05.526Z,71.94
2018-05-18T04:02:45.379Z,72.09
2018-05-18T04:05:24.777Z,72.20
2018-05-18T04:08:04.452Z,72.07
2018-05-18T04:10:32.034Z,72.00
2018-05-18T04:12:59.858Z,72.21
2018-05-18T04:15:27.514Z,72.24
2018-05-18T04:17:55.152Z,72.55
2018-05-18T04:20:22.794Z,72.74
2018-05-18T04:22:59.681Z,72.60
2018-05-18T04:25:27.269Z,71.98
2018-05-18T04:27:54.865Z,72.34
2018-05-18T04:30:22.621Z,72.46
2018-05-18T04:32:50.699Z,72.08
2018-05-18T04:35:18.347Z,71.85
2018-05-18T04:37:45.980Z,71.89
2018-05-18T04:40:13.647Z,71.75
2018-05-18T04:42:57.541Z,71.42
2018-05-18T04:45:25.193Z,70.50
2018-05-18T04:47:52.781Z,70.97
2018-05-18T04:50:20.581Z,70.23
2018-05-18T04:52:48.421Z,70.98
2018-05-18T04:55:15.988Z,71.04
2018-05-18T04:57:43.687Z,70.84
2018-05-18T05:00:11.257Z,71.24
2018-05-18T05:02:38.831Z,70.90
2018-05-18T05:05:06.446Z,70.77
2018-05-18T05:07:34.057Z,70.67
2018-05-18T05:10:02.016Z,71.19
2018-05-18T05:12:30.290Z,71.46
2018-05-18T05:14:58.208Z,70.94
2018-05-18T05:17:25.789Z,71.10
2018-05-18T05:19:53.562Z,70.38
2018-05-18T05:22:21.173Z,70.82
2018-05-18T05:24:48.750Z,70.68
2018-05-18T05:27:16.370Z,70.81
2018-05-18T05:29:43.944Z,70.37
2018-05-18T05:32:11.633Z,69.84
2018-05-18T05:34:39.289Z,69.76
2018-05-18T05:37:07.164Z,70.10
2018-05-18T05:39:34.839Z,70.21
2018-05-18T05:42:02.408Z,69.93
2018-05-18T05:44:31.089Z,69.47
2018-05-18T05:46:58.803Z,69.05
2018-05-18T05:49:26.688Z,69.33
2018-05-18T05:51:54.381Z,69.24
2018-05-18T05:54:22.455Z,68.73
2018-05-18T05:56:50.029Z,68.65
2018-05-18T05:59:17.615Z,68.45
2018-05-18T06:01:45.255Z,67.95
2018-05-18T06:04:12.848Z,68.18
2018-05-18T06:06:40.713Z,68.28
2018-05-18T06:09:08.758Z,68.53
2018-05-18T06:11:36.329Z,68.54
2018-05-18T06:14:03.925Z,67.96
2018-05-18T06:16:32.031Z,68.35
2018-05-18T06:18:59.611Z,68.76
2018-05-18T06:21:27.208Z,67.81
2018-05-18T06:23:55.316Z,67.74
2018-05-18T06:26:22.906Z,66.89
2018-05-18T06:28:50.494Z,67.58
2018-05-18T06:31:18.429Z,67.40
2018-05-18T06:33:46.077Z,67.54
2018-05-18T06:36:13.647Z,67.65
2018-05-18T06:38:41.352Z,67.66
2018-05-18T06:41:09.137Z,67.66
2018-05-18T06:43:37.076Z,68.07
2018-05-18T06:46:04.650Z,68.14
2018-05-18T06:48:32.271Z,67.62
2018-05-18T06:50:59.910Z,67.37
2018-05-18T06:53:27.530Z,66.40
2018-05-18T06:55:55.105Z,66.49
2018-05-18T06:58:22.687Z,66.60
2018-05-18T07:00:50.326Z,67.10
2018-05-18T07:03:17.913Z,66.39
2018-05-18T07:05:45.985Z,66.72
2018-05-18T07:08:13.621Z,66.09
2018-05-18T07:10:41.275Z,66.08
2018-05-18T07:13:09.816Z,65.29
2018-05-18T07:15:37.398Z,65.59
2018-05-18T07:18:04.992Z,65.25
2018-05-18T07:20:32.782Z,65.70
2018-05-18T07:23:00.451Z,65.60
2018-05-18T07:25:28.029Z,65.83
2018-05-18T07:27:55.744Z,65.94
2018-05-18T07:30:23.584Z,65.60
2018-05-18T07:32:51.229Z,64.49
2018-05-18T07:35:18.952Z,64.10
2018-05-18T07:37:46.987Z,64.03
2018-05-18T07:40:14.811Z,64.40
2018-05-18T07:42:42.458Z,65.12
2018-05-18T07:45:10.044Z,64.10
2018-05-18T07:47:37.640Z,63.75
2018-05-18T07:50:05.444Z,63.76
2018-05-18T07:52:33.007Z,63.31
2018-05-18T07:55:00.596Z,63.38
2018-05-18T07:57:28.315Z,64.42
2018-05-18T07:59:55.970Z,62.51
2018-05-18T08:02:23.536Z,62.60
2018-05-18T08:04:51.148Z,62.39
2018-05-18T08:07:18.807Z,62.94
2018-05-18T08:09:46.445Z,63.20
2018-05-18T08:12:14.084Z,63.95
2018-05-18T08:14:41.729Z,64.46
2018-05-18T08:17:09.357Z,64.86
2018-05-18T08:19:36.949Z,64.30
2018-05-18T08:22:04.845Z,63.56
2018-05-18T08:24:32.495Z,62.16
2018-05-18T08:30:03.009Z,60.35
2018-05-18T08:32:30.694Z,60.52
2018-05-18T08:34:58.647Z,60.94
2018-05-18T08:37:26.273Z,60.50
2018-05-18T08:39:53.958Z,60.16
2018-05-18T08:42:21.521Z,59.88
2018-05-18T08:44:49.096Z,59.92
2018-05-18T08:47:16.695Z,59.79
2018-05-18T08:49:44.620Z,60.05
2018-05-18T08:52:12.846Z,59.92
2018-05-18T08:54:40.406Z,59.20
2018-05-18T08:57:08.160Z,60.07
2018-05-18T08:59:35.755Z,59.65
2018-05-18T09:02:03.420Z,60.30
2018-05-18T09:04:31.204Z,61.23
2018-05-18T09:06:58.905Z,61.54
2018-05-18T09:09:26.489Z,61.00
2018-05-18T09:11:54.133Z,61.35
2018-05-18T09:14:21.726Z,60.23
2018-05-18T09:16:49.308Z,60.87
2018-05-18T09:19:17.257Z,60.71
2018-05-18T09:21:44.829Z,60.11
2018-05-18T09:24:12.410Z,60.18
2018-05-18T09:26:39.999Z,58.65
2018-05-18T09:29:07.584Z,59.18
2018-05-18T09:31:35.359Z,59.61
2018-05-18T09:34:02.980Z,59.07
2018-05-18T09:36:30.592Z,58.56
2018-05-18T09:38:58.643Z,58.70
2018-05-18T09:41:26.211Z,58.88
2018-05-18T09:43:53.798Z,59.15
2018-05-18T09:46:21.393Z,58.98
2018-05-18T09:48:49.017Z,58.29
2018-05-18T09:51:16.644Z,58.26
2018-05-18T09:53:44.246Z,58.31
2018-05-18T09:56:11.814Z,58.64
2018-05-18T09:58:39.799Z,59.11
2018-05-18T10:01:07.385Z,58.65
2018-05-18T10:03:35.002Z,58.95
2018-05-18T10:06:02.612Z,58.39
2018-05-18T10:08:30.255Z,58.16
2018-05-18T10:10:57.857Z,57.23
2018-05-18T10:13:25.437Z,57.47
2018-05-18T10:15:53.076Z,57.88
2018-05-18T10:18:20.888Z,56.67
2018-05-18T10:20:48.537Z,57.48
2018-05-18T10:23:16.140Z,57.11
2018-05-18T10:25:43.715Z,57.49
2018-05-18T10:28:11.559Z,56.79
2018-05-18T10:30:39.180Z,56.68
2018-05-18T10:33:06.872Z,57.77
2018-05-18T10:35:34.467Z,57.24
2018-05-18T10:38:02.101Z,56.52
2018-05-18T10:40:29.780Z,57.16
2018-05-18T10:42:57.355Z,56.24
2018-05-18T10:45:24.994Z,55.39
2018-05-18T10:47:52.887Z,55.83
2018-05-18T10:50:20.506Z,55.51
2018-05-18T10:52:48.071Z,55.74
2018-05-18T10:55:15.720Z,56.58
2018-05-18T10:57:43.321Z,56.41
2018-05-18T11:00:10.937Z,54.71
2018-05-18T11:02:38.520Z,56.02
2018-05-18T11:05:06.148Z,54.67
2018-05-18T11:07:33.778Z,54.48
2018-05-18T11:10:01.597Z,55.41
2018-05-18T11:12:29.220Z,55.66
2018-05-18T11:14:56.789Z,55.60
2018-05-18T11:17:24.575Z,55.79
2018-05-18T11:19:52.168Z,56.37
2018-05-18T11:22:19.801Z,55.90
2018-05-18T11:24:47.391Z,54.30
2018-05-18T11:27:15.056Z,54.16
2018-05-18T11:29:42.636Z,55.43
2018-05-18T11:32:10.275Z,55.29
2018-05-18T11:34:38.252Z,55.13
2018-05-18T11:37:06.103Z,55.04
2018-05-18T11:39:33.659Z,54.39
2018-05-18T11:42:01.656Z,53.84
2018-05-18T11:44:29.285Z,52.93
2018-05-18T11:46:56.853Z,52.33
2018-05-18T11:49:24.726Z,52.35
2018-05-18T11:51:52.525Z,52.39
2018-05-18T11:54:20.153Z,52.97
2018-05-18T11:56:47.977Z,52.91
2018-05-18T11:59:15.835Z,52.95
2018-05-18T12:01:43.445Z,52.77
2018-05-18T12:04:11.134Z,50.37
2018-05-18T12:06:38.691Z,49.10
2018-05-18T12:09:06.244Z,50.44
2018-05-18T12:11:33.988Z,51.31
2018-05-18T12:14:01.619Z,49.80
2018-05-18T12:16:29.149Z,49.92
2018-05-18T12:18:56.969Z,48.82
2018-05-18T12:21:24.524Z,48.26
2018-05-18T12:23:52.586Z,49.20
2018-05-18T12:26:20.144Z,50.37
2018-05-18T12:28:47.777Z,50.05
2018-05-18T12:31:15.383Z,49.93
2018-05-18T12:33:42.944Z,50.07
2018-05-18T12:36:10.532Z,50.20
2018-05-18T12:38:38.115Z,49.59
2018-05-18T12:41:05.740Z,50.05
2018-05-18T12:43:33.296Z,48.92
2018-05-18T12:46:00.925Z,48.78
2018-05-18T12:48:28.501Z,48.10
2018-05-18T12:50:56.068Z,48.10
2018-05-18T12:53:23.678Z,48.74
2018-05-18T12:55:51.243Z,47.84
2018-05-18T12:58:18.849Z,47.54
2018-05-18T13:00:46.447Z,47.55
2018-05-18T13:03:14.034Z,45.99
2018-05-18T13:05:41.861Z,43.31
2018-05-18T13:08:09.516Z,44.09
2018-05-18T13:10:37.046Z,43.58
2018-05-18T13:13:04.620Z,44.47
2018-05-18T13:15:32.199Z,44.55
2018-05-18T13:18:00.294Z,44.86
2018-05-18T13:20:28.049Z,45.38
2018-05-18T13:22:55.753Z,45.92
2018-05-18T13:25:23.320Z,44.95
2018-05-18T13:27:50.911Z,46.13
2018-05-18T13:30:18.554Z,44.56
2018-05-18T13:32:46.119Z,45.61
2018-05-18T13:35:13.689Z,45.94
2018-05-18T13:37:41.423Z,44.86
2018-05-18T13:40:09.052Z,44.71
2018-05-18T13:42:36.611Z,43.73
2018-05-18T13:45:04.618Z,44.70
2018-05-18T13:47:32.574Z,43.10
2018-05-18T13:50:00.188Z,42.89
2018-05-18T13:52:27.754Z,42.88
2018-05-18T13:54:57.267Z,42.32
2018-05-18T13:57:24.823Z,42.68
2018-05-18T13:59:52.481Z,43.45
2018-05-18T14:02:20.101Z,43.15
2018-05-18T14:04:47.927Z,42.30
2018-05-18T14:07:15.574Z,43.49
2018-05-18T14:09:43.216Z,43.87
2018-05-18T14:12:10.796Z,44.83
2018-05-18T14:14:40.765Z,45.64
2018-05-18T14:17:08.621Z,45.86
2018-05-18T14:19:36.427Z,45.29
2018-05-18T14:22:03.985Z,45.50
2018-05-18T14:24:31.569Z,45.88
2018-05-18T14:26:59.369Z,45.63
2018-05-18T14:29:26.967Z,45.93
2018-05-18T14:31:54.567Z,45.27
2018-05-18T14:34:22.324Z,45.45
2018-05-18T14:36:49.933Z,46.10
2018-05-18T14:39:17.494Z,46.98
2018-05-18T14:41:45.081Z,47.35
2018-05-18T14:44:12.691Z,47.71
2018-05-18T14:46:40.289Z,47.85
2018-05-18T14:49:08.086Z,48.15
2018-05-18T14:51:35.700Z,47.53
2018-05-18T14:54:03.335Z,47.58
2018-05-18T14:56:30.986Z,47.13
2018-05-18T14:58:59.456Z,47.15
2018-05-18T15:01:27.020Z,47.14
2018-05-18T15:03:54.935Z,46.78
2018-05-18T15:06:22.524Z,45.87
2018-05-18T15:08:50.165Z,46.52
2018-05-18T15:11:17.791Z,45.69
2018-05-18T15:13:45.409Z,47.01
2018-05-18T15:16:13.016Z,47.18
2018-05-18T15:18:40.643Z,46.35
2018-05-18T15:21:08.242Z,47.57
2018-05-18T15:23:35.869Z,46.92
2018-05-18T15:26:03.548Z,46.30
2018-05-18T15:28:31.184Z,46.22
2018-05-18T15:30:59.507Z,46.67
2018-05-18T15:33:27.083Z,46.76
2018-05-18T15:35:54.643Z,46.92
2018-05-18T15:38:22.228Z,46.76
2018-05-18T15:40:50.033Z,46.66
2018-05-18T15:43:18.080Z,46.98
2018-05-18T15:45:45.654Z,47.08
2018-05-18T15:48:13.207Z,47.91
2018-05-18T15:50:41.116Z,47.49
2018-05-18T15:53:08.668Z,47.82
2018-05-18T15:55:36.235Z,47.76
2018-05-18T15:58:03.815Z,47.88
2018-05-18T16:00:31.394Z,48.25
2018-05-18T16:02:59.007Z,48.67
2018-05-18T16:05:26.585Z,49.18
2018-05-18T16:07:54.163Z,49.10
2018-05-18T16:10:21.876Z,49.33
2018-05-18T16:12:49.533Z,49.60
2018-05-18T16:15:17.024Z,50.64
2018-05-18T16:17:44.615Z,50.13
2018-05-18T16:20:12.209Z,50.40
2018-05-18T16:22:40.089Z,49.72
2018-05-18T16:25:07.918Z,50.05
2018-05-18T16:27:35.549Z,50.56
2018-05-18T16:30:03.432Z,50.00
2018-05-18T16:32:31.006Z,51.04
2018-05-18T16:34:58.610Z,51.11
2018-05-18T16:37:27.104Z,50.75
2018-05-18T16:39:55.158Z,50.87
2018-05-18T16:42:22.805Z,50.51
2018-05-18T16:44:50.431Z,51.64
2018-05-18T16:47:18.072Z,51.86
2018-05-18T16:49:45.634Z,51.56
2018-05-18T16:52:13.551Z,51.54
2018-05-18T16:54:41.115Z,51.99
2018-05-18T16:57:08.679Z,52.15
2018-05-18T16:59:36.272Z,52.72
2018-05-18T17:02:03.835Z,53.18
2018-05-18T17:04:31.845Z,52.99
2018-05-18T17:06:59.476Z,52.90
2018-05-18T17:09:27.034Z,53.21
2018-05-18T17:11:54.646Z,53.17
2018-05-18T17:14:22.200Z,52.76
2018-05-18T17:16:49.772Z,52.47
2018-05-18T17:19:17.378Z,52.66
2018-05-18T17:21:44.947Z,52.68
2018-05-18T17:24:12.532Z,53.24
2018-05-18T17:26:40.105Z,53.32
2018-05-18T17:29:07.710Z,54.21
2018-05-18T17:31:35.368Z,54.87
2018-05-18T17:34:03.241Z,56.04
2018-05-18T17:36:30.947Z,56.42
2018-05-18T17:38:58.892Z,56.70
2018-05-18T17:41:26.514Z,57.26
2018-05-18T17:43:54.812Z,57.77
2018-05-18T17:46:22.373Z,57.52
2018-05-18T17:48:49.968Z,57.75
2018-05-18T17:51:17.606Z,58.61
2018-05-18T17:53:45.184Z,59.25
2018-05-18T17:56:12.840Z,59.01
2018-05-18T17:58:40.399Z,58.99
2018-05-18T18:01:07.991Z,59.29
2018-05-18T18:03:35.578Z,59.24
2018-05-18T18:06:03.178Z,59.05
2018-05-18T18:08:30.749Z,59.16
2018-05-18T18:10:58.419Z,59.46
2018-05-18T18:13:26.026Z,59.76
2018-05-18T18:15:53.659Z,59.99
2018-05-18T18:18:21.498Z,60.12
2018-05-18T18:20:49.429Z,60.17
2018-05-18T18:23:17.019Z,60.42
2018-05-18T18:25:44.589Z,60.59
2018-05-18T18:28:12.232Z,60.69
2018-05-18T18:30:39.868Z,61.30
2018-05-18T18:33:07.669Z,61.81
2018-05-18T18:35:35.271Z,62.15
2018-05-18T18:38:02.925Z,61.98
2018-05-18T18:40:30.559Z,62.47
2018-05-18T18:42:58.145Z,61.98
2018-05-18T18:45:25.792Z,61.45
2018-05-18T18:47:53.437Z,62.08
2018-05-18T18:50:21.011Z,62.30
2018-05-18T18:52:48.575Z,62.55
2018-05-18T18:55:16.216Z,62.68
2018-05-18T18:57:44.042Z,62.88
2018-05-18T19:00:11.627Z,63.13
2018-05-18T19:02:39.275Z,63.30
2018-05-18T19:05:06.834Z,63.50
2018-05-18T19:07:34.660Z,63.61
2018-05-18T19:10:02.485Z,64.22
2018-05-18T19:12:30.313Z,64.37
2018-05-18T19:14:57.905Z,64.39
2018-05-18T19:17:25.476Z,64.40
2018-05-18T19:19:53.086Z,64.05
2018-05-18T19:22:20.662Z,63.81
2018-05-18T19:24:48.235Z,63.94
2018-05-18T19:27:15.843Z,64.33
2018-05-18T19:29:43.620Z,64.51
2018-05-18T19:32:11.158Z,65.42
2018-05-18T19:34:38.724Z,65.39
2018-05-18T19:37:06.464Z,65.24
2018-05-18T19:39:34.068Z,65.15
2018-05-18T19:42:01.700Z,64.63
2018-05-18T19:44:29.674Z,64.90
2018-05-18T19:46:57.274Z,65.01
2018-05-18T19:49:24.828Z,65.20
2018-05-18T19:51:52.533Z,65.27
2018-05-18T19:54:20.095Z,65.67
2018-05-18T19:56:47.725Z,66.07
2018-05-18T19:59:15.498Z,66.76
2018-05-18T20:01:43.346Z,66.84
2018-05-18T20:04:10.920Z,66.90
2018-05-18T20:06:38.527Z,66.84
2018-05-18T20:09:06.164Z,66.81
2018-05-18T20:11:34.001Z,66.59
2018-05-18T20:14:01.664Z,65.93
2018-05-18T20:16:29.243Z,65.67
2018-05-18T20:18:57.200Z,65.34
2018-05-18T20:21:24.776Z,64.96
2018-05-18T20:23:52.370Z,64.61
2018-05-18T20:26:20.194Z,64.12
2018-05-18T20:28:47.802Z,63.86
2018-05-18T20:31:15.455Z,64.22
2018-05-18T20:33:43.038Z,64.75
2018-05-18T20:36:10.842Z,65.05
2018-05-18T20:38:38.413Z,65.91
2018-05-18T20:41:05.986Z,66.45
2018-05-18T20:43:33.592Z,66.65
2018-05-18T20:46:01.283Z,66.35
2018-05-18T20:48:28.847Z,66.47
2018-05-18T20:50:56.490Z,65.23
2018-05-18T20:53:24.576Z,65.17
2018-05-18T20:55:52.145Z,64.93
2018-05-18T20:58:19.765Z,64.79
2018-05-18T21:00:47.411Z,64.56
2018-05-18T21:03:15.052Z,64.53
2018-05-18T21:05:42.859Z,64.95
2018-05-18T21:08:10.447Z,64.94
2018-05-18T21:10:38.128Z,64.78
2018-05-18T21:13:05.822Z,63.57
2018-05-18T21:15:33.680Z,63.59
2018-05-18T21:18:01.322Z,62.69
2018-05-18T21:20:29.095Z,62.96
2018-05-18T21:22:56.793Z,63.07
2018-05-18T21:25:24.421Z,63.00
2018-05-18T21:27:52.055Z,62.94
2018-05-18T21:30:20.080Z,63.09
2018-05-18T21:32:48.361Z,63.16
2018-05-18T21:35:15.946Z,63.48
2018-05-18T21:37:43.543Z,63.14
2018-05-18T21:40:11.202Z,62.72
2018-05-18T21:42:38.826Z,62.90
2018-05-18T21:45:06.471Z,63.32
2018-05-18T21:47:34.098Z,63.73
2018-05-18T21:50:01.752Z,64.06
2018-05-18T21:52:29.918Z,64.17
2018-05-18T21:54:57.492Z,64.43
2018-05-18T21:57:25.242Z,64.62
2018-05-18T21:59:52.830Z,64.97
2018-05-18T22:02:20.525Z,65.17
2018-05-18T22:04:48.102Z,65.28
2018-05-18T22:07:15.737Z,65.33
2018-05-18T22:09:43.500Z,65.50
2018-05-18T22:12:11.197Z,65.63
2018-05-18T22:14:38.873Z,65.84
2018-05-18T22:17:06.594Z,66.08
2018-05-18T22:19:34.227Z,66.06
2018-05-18T22:22:02.025Z,65.90
2018-05-18T22:24:29.947Z,65.94
2018-05-18T22:26:57.596Z,65.88
2018-05-18T22:29:25.201Z,65.80
2018-05-18T22:31:53.001Z,65.70
2018-05-18T22:34:20.729Z,65.51
2018-05-18T22:36:48.314Z,65.58
2018-05-18T22:39:16.518Z,65.58
2018-05-18T22:41:44.102Z,65.34
2018-05-18T22:44:11.918Z,65.28
2018-05-18T22:46:39.826Z,65.45
2018-05-18T22:49:07.863Z,65.53
2018-05-18T22:51:35.572Z,65.48
2018-05-18T22:54:03.234Z,65.56
2018-05-18T22:56:30.946Z,65.48
2018-05-18T22:58:58.680Z,65.56
2018-05-18T23:01:27.281Z,65.58
2018-05-18T23:03:54.960Z,65.56
2018-05-18T23:06:22.535Z,65.59
2018-05-18T23:08:50.315Z,65.55
2018-05-18T23:11:17.890Z,65.39
2018-05-18T23:13:45.466Z,65.43
2018-05-18T23:16:13.772Z,65.64
2018-05-18T23:18:41.854Z,65.77
2018-05-18T23:21:09.924Z,65.85
2018-05-18T23:23:37.764Z,66.03
2018-05-18T23:26:05.812Z,66.52
2018-05-18T23:28:34.176Z,66.66
2018-05-18T23:31:01.751Z,66.85
2018-05-18T23:33:29.340Z,67.01
2018-05-18T23:35:56.972Z,67.13
2018-05-18T23:38:24.614Z,67.34
2018-05-18T23:40:52.206Z,67.63
2018-05-18T23:43:19.816Z,67.98
2018-05-18T23:45:47.451Z,68.49
2018-05-18T23:48:15.062Z,68.78
2018-05-18T23:50:42.627Z,69.06
2018-05-18T23:53:10.236Z,69.29
2018-05-18T23:55:37.818Z,69.52
2018-05-18T23:58:05.446Z,69.66
